createdAt,value
2023-02-11T00:00:59.502Z,53.61
2023-02-11T00:03:01.268Z,53.76
2023-02-11T00:05:03.029Z,54.11
2023-02-11T00:07:04.808Z,54.53
2023-02-11T00:09:06.675Z,55.61
2023-02-11T00:11:13.068Z,56.61
2023-02-11T00:13:14.704Z,56.90
2023-02-11T00:15:16.365Z,56.26
2023-02-11T00:17:18.035Z,56.57
2023-02-11T00:19:20.482Z,56.63
2023-02-11T00:21:24.671Z,56.17
2023-02-11T00:23:26.350Z,56.37
2023-02-11T00:25:28.028Z,55.86
2023-02-11T00:27:29.575Z,56.67
2023-02-11T00:29:31.137Z,56.53
2023-02-11T00:31:34.454Z,56.57
2023-02-11T00:33:36.310Z,55.88
2023-02-11T00:35:38.823Z,55.44
2023-02-11T00:37:40.664Z,55.23
2023-02-11T00:39:42.281Z,55.00
2023-02-11T00:41:43.855Z,54.75
2023-02-11T00:43:45.876Z,54.19
2023-02-11T00:45:47.603Z,54.40
2023-02-11T00:47:49.336Z,55.37
2023-02-11T00:49:50.936Z,55.69
2023-02-11T00:51:52.573Z,55.74
2023-02-11T00:53:54.806Z,55.22
2023-02-11T00:55:56.636Z,55.83
2023-02-11T00:58:00.080Z,55.78
2023-02-11T01:00:01.762Z,55.29
2023-02-11T01:02:03.441Z,55.85
2023-02-11T01:04:05.147Z,55.51
2023-02-11T01:06:08.358Z,55.21
2023-02-11T01:08:10.095Z,55.81
2023-02-11T01:10:11.925Z,55.62
2023-02-11T01:12:13.610Z,54.60
2023-02-11T01:14:15.424Z,55.04
2023-02-11T01:16:17.760Z,54.58
2023-02-11T01:18:19.428Z,54.27
2023-02-11T01:20:23.698Z,54.37
2023-02-11T01:22:25.339Z,55.05
2023-02-11T01:24:28.427Z,54.72
2023-02-11T01:26:29.983Z,55.05
2023-02-11T01:28:32.046Z,54.32
2023-02-11T01:30:33.647Z,54.66
2023-02-11T01:32:35.666Z,55.97
2023-02-11T01:34:37.300Z,57.10
2023-02-11T01:36:38.972Z,57.14
2023-02-11T01:38:41.148Z,58.06
2023-02-11T01:40:50.621Z,58.51
2023-02-11T01:42:52.192Z,57.56
2023-02-11T01:44:54.769Z,58.39
2023-02-11T01:46:56.509Z,57.39
2023-02-11T01:49:10.025Z,57.27
2023-02-11T01:51:17.548Z,56.54
2023-02-11T01:53:38.381Z,56.20
2023-02-11T01:55:58.958Z,55.45
2023-02-11T01:58:02.803Z,55.44
2023-02-11T02:00:10.679Z,56.03
2023-02-11T02:02:14.027Z,55.80
2023-02-11T02:04:17.870Z,55.95
2023-02-11T02:06:45.791Z,56.49
2023-02-11T02:08:52.685Z,57.48
2023-02-11T02:10:56.583Z,57.37
2023-02-11T02:12:58.330Z,57.54
2023-02-11T02:15:19.551Z,57.62
2023-02-11T02:17:34.716Z,57.92
2023-02-11T02:19:45.215Z,57.76
2023-02-11T02:22:31.558Z,56.74
2023-02-11T02:25:10.709Z,56.20
2023-02-11T02:27:18.103Z,56.12
2023-02-11T02:29:36.308Z,56.29
2023-02-11T02:32:15.163Z,55.11
2023-02-11T02:34:41.683Z,55.33
2023-02-11T02:36:57.722Z,54.90
2023-02-11T02:39:10.930Z,55.10
2023-02-11T02:41:18.030Z,54.98
2023-02-11T02:43:20.441Z,54.01
2023-02-11T02:45:22.383Z,54.16
2023-02-11T02:47:24.063Z,54.58
2023-02-11T02:49:25.689Z,54.76
2023-02-11T02:51:32.989Z,54.14
2023-02-11T02:53:55.661Z,54.51
2023-02-11T02:56:04.984Z,54.17
2023-02-11T03:01:57.321Z,54.70
2023-02-11T03:04:08.590Z,54.17
2023-02-11T03:06:31.600Z,54.27
2023-02-11T03:08:55.450Z,54.46
2023-02-11T03:10:58.157Z,53.87
2023-02-11T03:13:00.361Z,53.91
2023-02-11T03:15:03.706Z,54.27
2023-02-11T03:17:06.309Z,53.85
2023-02-11T03:19:20.410Z,54.03
2023-02-11T03:21:22.803Z,54.39
2023-02-11T03:23:29.531Z,54.62
2023-02-11T03:25:38.331Z,54.17
2023-02-11T03:27:52.290Z,53.69
2023-02-11T03:30:20.119Z,54.17
2023-02-11T03:32:35.036Z,55.20
2023-02-11T03:34:44.680Z,55.13
2023-02-11T03:36:57.105Z,55.91
2023-02-11T03:39:00.580Z,55.37
2023-02-11T03:41:04.060Z,56.38
2023-02-11T03:43:11.455Z,55.65
2023-02-11T03:45:17.313Z,57.48
2023-02-11T03:47:21.541Z,57.97
2023-02-11T03:49:25.374Z,58.47
2023-02-11T03:51:26.901Z,58.19
2023-02-11T03:53:28.727Z,58.04
2023-02-11T03:55:33.589Z,58.37
2023-02-11T03:57:35.288Z,58.72
2023-02-11T03:59:56.938Z,58.48
2023-02-11T04:01:59.645Z,58.06
2023-02-11T04:04:01.338Z,57.43
2023-02-11T04:06:02.919Z,57.38
2023-02-11T04:08:05.208Z,56.60
2023-02-11T04:10:07.469Z,57.62
2023-02-11T04:12:09.161Z,57.66
2023-02-11T04:14:10.786Z,58.47
2023-02-11T04:16:12.485Z,58.64
2023-02-11T04:18:14.092Z,58.85
2023-02-11T04:20:15.807Z,58.80
2023-02-11T04:22:17.458Z,58.33
2023-02-11T04:24:19.089Z,58.82
2023-02-11T04:26:20.734Z,59.26
2023-02-11T04:28:22.392Z,60.22
2023-02-11T04:30:24.063Z,60.47
2023-02-11T04:32:25.733Z,60.42
2023-02-11T04:34:27.938Z,60.15
2023-02-11T04:36:29.598Z,59.73
2023-02-11T04:38:31.270Z,59.03
2023-02-11T04:40:32.980Z,59.46
2023-02-11T04:42:34.611Z,58.58
2023-02-11T04:44:36.190Z,58.10
2023-02-11T04:46:37.919Z,58.25
2023-02-11T04:48:39.565Z,57.72
2023-02-11T04:50:41.837Z,57.86
2023-02-11T04:52:43.465Z,58.13
2023-02-11T04:54:45.085Z,57.26
2023-02-11T04:56:46.747Z,57.35
2023-02-11T04:58:48.416Z,56.35
2023-02-11T05:00:50.061Z,56.50
2023-02-11T05:02:51.755Z,56.65
2023-02-11T05:04:53.407Z,57.24
2023-02-11T05:06:57.088Z,56.21
2023-02-11T05:08:59.917Z,56.66
2023-02-11T05:11:02.366Z,56.22
2023-02-11T05:13:04.087Z,56.43
2023-02-11T05:15:06.128Z,57.59
2023-02-11T05:17:08.216Z,57.98
2023-02-11T05:19:10.249Z,58.69
2023-02-11T05:21:15.107Z,58.25
2023-02-11T05:23:16.718Z,58.87
2023-02-11T05:25:18.664Z,59.02
2023-02-11T05:27:20.206Z,59.12
2023-02-11T05:29:21.832Z,59.27
2023-02-11T05:31:23.527Z,59.66
2023-02-11T05:33:25.305Z,59.56
2023-02-11T05:35:26.990Z,57.92
2023-02-11T05:37:28.660Z,58.37
2023-02-11T05:39:30.258Z,58.62
2023-02-11T05:41:31.843Z,58.13
2023-02-11T05:43:35.419Z,58.23
2023-02-11T05:45:37.064Z,57.93
2023-02-11T05:47:38.668Z,57.48
2023-02-11T05:49:40.295Z,57.17
2023-02-11T05:51:41.920Z,57.60
2023-02-11T05:53:43.569Z,58.16
2023-02-11T05:55:45.257Z,58.27
2023-02-11T05:57:46.835Z,58.63
2023-02-11T05:59:48.454Z,59.71
2023-02-11T06:01:50.033Z,60.00
2023-02-11T06:03:51.777Z,59.89
2023-02-11T06:05:53.628Z,60.28
2023-02-11T06:07:55.255Z,60.21
2023-02-11T06:09:57.609Z,60.35
2023-02-11T06:11:59.233Z,60.53
2023-02-11T06:14:01.539Z,60.65
2023-02-11T06:16:03.522Z,59.98
2023-02-11T06:18:05.530Z,60.12
2023-02-11T06:20:08.708Z,60.04
2023-02-11T06:22:10.538Z,60.59
2023-02-11T06:24:12.808Z,60.29
2023-02-11T06:26:21.087Z,60.50
2023-02-11T06:28:22.746Z,60.05
2023-02-11T06:30:24.326Z,59.95
2023-02-11T06:32:45.132Z,60.30
2023-02-11T06:34:47.219Z,59.40
2023-02-11T06:36:48.839Z,59.00
2023-02-11T06:38:50.969Z,60.10
2023-02-11T06:40:52.612Z,58.73
2023-02-11T06:42:54.285Z,60.14
2023-02-11T06:44:55.900Z,60.09
2023-02-11T06:46:57.700Z,60.44
2023-02-11T06:48:59.317Z,60.31
2023-02-11T06:51:09.700Z,60.82
2023-02-11T06:53:11.326Z,61.28
2023-02-11T06:55:12.920Z,60.19
2023-02-11T06:57:14.565Z,61.40
2023-02-11T06:59:17.467Z,60.80
2023-02-11T07:01:19.103Z,61.68
2023-02-11T07:03:20.858Z,61.73
2023-02-11T07:05:22.524Z,61.65
2023-02-11T07:07:24.138Z,61.78
2023-02-11T07:09:25.893Z,61.42
2023-02-11T07:11:29.130Z,62.10
2023-02-11T07:13:30.735Z,61.79
2023-02-11T07:15:32.684Z,61.64
2023-02-11T07:17:35.748Z,60.84
2023-02-11T07:19:37.335Z,60.29
2023-02-11T07:21:38.950Z,59.55
2023-02-11T07:23:43.591Z,59.40
2023-02-11T07:25:45.185Z,58.43
2023-02-11T07:27:46.807Z,58.25
2023-02-11T07:29:48.846Z,57.70
2023-02-11T07:31:50.589Z,57.54
2023-02-11T07:33:53.948Z,56.96
2023-02-11T07:35:55.588Z,56.53
2023-02-11T07:37:57.167Z,55.44
2023-02-11T07:39:58.794Z,55.25
2023-02-11T07:42:00.455Z,56.57
2023-02-11T07:44:03.596Z,56.68
2023-02-11T07:46:06.994Z,55.67
2023-02-11T07:48:08.623Z,57.04
2023-02-11T07:50:10.382Z,56.74
2023-02-11T07:52:12.062Z,55.98
2023-02-11T07:54:13.643Z,56.35
2023-02-11T07:56:16.310Z,55.89
2023-02-11T07:58:17.930Z,56.28
2023-02-11T08:00:21.169Z,55.17
2023-02-11T08:02:22.999Z,54.66
2023-02-11T08:04:24.675Z,53.59
2023-02-11T08:06:29.306Z,53.10
2023-02-11T08:08:30.942Z,52.26
2023-02-11T08:10:32.475Z,52.85
2023-02-11T08:12:34.101Z,52.41
2023-02-11T08:14:35.866Z,52.03
2023-02-11T08:16:39.045Z,51.97
2023-02-11T08:18:40.810Z,52.16
2023-02-11T08:20:42.468Z,52.13
2023-02-11T08:22:44.064Z,52.25
2023-02-11T08:24:45.832Z,52.20
2023-02-11T08:26:47.425Z,51.61
2023-02-11T08:28:50.803Z,51.80
2023-02-11T08:30:52.759Z,51.45
2023-02-11T08:32:54.619Z,52.74
2023-02-11T08:34:56.195Z,54.76
2023-02-11T08:36:57.823Z,55.34
2023-02-11T08:39:17.306Z,56.50
2023-02-11T08:41:20.021Z,56.76
2023-02-11T08:43:21.701Z,55.91
2023-02-11T08:45:23.286Z,55.11
2023-02-11T08:47:24.886Z,55.75
2023-02-11T08:49:26.565Z,56.10
2023-02-11T08:51:30.482Z,55.44
2023-02-11T08:53:32.050Z,54.90
2023-02-11T08:55:33.672Z,53.90
2023-02-11T08:57:35.286Z,52.91
2023-02-11T08:59:37.160Z,52.41
2023-02-11T09:01:38.862Z,51.96
2023-02-11T09:03:40.582Z,52.46
2023-02-11T09:05:43.393Z,52.45
2023-02-11T09:07:45.092Z,51.52
2023-02-11T09:09:46.770Z,51.14
2023-02-11T09:11:48.710Z,51.77
2023-02-11T09:13:53.283Z,52.62
2023-02-11T09:15:55.993Z,52.97
2023-02-11T09:17:58.164Z,52.90
2023-02-11T09:19:59.828Z,52.81
2023-02-11T09:22:01.704Z,52.72
2023-02-11T09:24:03.526Z,52.48
2023-02-11T09:26:12.805Z,52.68
2023-02-11T09:28:14.570Z,53.19
2023-02-11T09:30:16.210Z,52.68
2023-02-11T09:32:18.578Z,51.81
2023-02-11T09:34:20.261Z,51.37
2023-02-11T09:36:28.806Z,51.78
2023-02-11T09:38:30.551Z,51.45
2023-02-11T09:40:32.147Z,51.19
2023-02-11T09:42:50.674Z,50.84
2023-02-11T09:44:52.697Z,51.58
2023-02-11T09:47:04.568Z,51.23
2023-02-11T09:49:07.069Z,50.76
2023-02-11T09:51:39.207Z,49.86
2023-02-11T09:53:42.500Z,50.06
2023-02-11T09:55:47.137Z,50.83
2023-02-11T09:57:48.944Z,49.33
2023-02-11T09:59:50.583Z,48.79
2023-02-11T10:02:00.841Z,47.31
2023-02-11T10:04:18.782Z,48.27
2023-02-11T10:06:29.325Z,47.53
2023-02-11T10:08:36.387Z,47.45
2023-02-11T10:10:41.110Z,47.23
2023-02-11T10:12:52.542Z,46.47
2023-02-11T10:15:28.132Z,45.39
2023-02-11T10:17:54.737Z,43.83
2023-02-11T10:20:02.197Z,44.47
2023-02-11T10:22:09.733Z,45.63
2023-02-11T10:24:13.114Z,45.41
2023-02-11T10:26:19.157Z,44.90
2023-02-11T10:28:27.478Z,44.93
2023-02-11T10:30:38.513Z,42.73
2023-02-11T10:32:49.814Z,42.35
2023-02-11T10:34:52.521Z,42.57
2023-02-11T10:36:54.219Z,41.82
2023-02-11T10:38:56.050Z,43.63
2023-02-11T10:40:57.661Z,43.59
2023-02-11T10:43:03.620Z,42.91
2023-02-11T10:45:07.361Z,42.25
2023-02-11T10:47:20.941Z,41.56
2023-02-11T10:49:41.115Z,40.42
2023-02-11T10:51:42.733Z,40.12
2023-02-11T10:53:49.051Z,40.91
2023-02-11T10:55:55.431Z,42.12
2023-02-11T10:57:59.432Z,43.13
2023-02-11T11:00:27.744Z,42.62
2023-02-11T11:02:35.361Z,42.34
2023-02-11T11:04:41.448Z,44.66
2023-02-11T11:06:43.097Z,45.02
2023-02-11T11:08:47.363Z,45.31
2023-02-11T11:11:03.872Z,43.85
2023-02-11T11:13:05.475Z,44.02
2023-02-11T11:15:10.225Z,42.83
2023-02-11T11:17:18.920Z,43.26
2023-02-11T11:19:22.964Z,42.97
2023-02-11T11:21:40.434Z,42.57
2023-02-11T11:23:57.579Z,42.41
2023-02-11T11:26:04.307Z,41.44
2023-02-11T11:28:05.961Z,41.06
2023-02-11T11:30:16.867Z,41.90
2023-02-11T11:32:28.213Z,42.93
2023-02-11T11:34:29.815Z,42.59
2023-02-11T11:36:35.100Z,42.11
2023-02-11T11:38:42.899Z,43.25
2023-02-11T11:40:44.506Z,42.45
2023-02-11T11:42:46.156Z,42.19
2023-02-11T11:44:59.195Z,41.78
2023-02-11T11:47:13.451Z,41.28
2023-02-11T11:49:29.391Z,41.04
2023-02-11T11:51:32.264Z,41.35
2023-02-11T11:53:45.909Z,41.56
2023-02-11T11:56:00.507Z,41.83
2023-02-11T11:58:02.317Z,41.41
2023-02-11T12:00:04.877Z,41.25
2023-02-11T12:02:28.932Z,41.34
2023-02-11T12:04:56.497Z,41.23
2023-02-11T12:07:25.941Z,41.50
2023-02-11T12:09:57.272Z,39.91
2023-02-11T12:12:23.658Z,39.97
2023-02-11T12:14:47.066Z,39.96
2023-02-11T12:17:06.818Z,40.50
2023-02-11T12:19:36.145Z,41.00
2023-02-11T12:21:54.329Z,41.10
2023-02-11T12:24:25.095Z,40.99
2023-02-11T12:27:12.801Z,40.12
2023-02-11T12:29:32.788Z,40.82
2023-02-11T12:31:59.440Z,41.56
2023-02-11T12:34:22.509Z,40.31
2023-02-11T12:36:24.060Z,37.47
2023-02-11T12:38:56.595Z,38.03
2023-02-11T12:41:54.011Z,39.08
2023-02-11T12:43:55.865Z,39.19
2023-02-11T12:46:37.162Z,40.03
2023-02-11T12:48:55.533Z,40.43
2023-02-11T12:51:32.047Z,39.91
2023-02-11T12:54:01.650Z,40.75
2023-02-11T12:56:15.405Z,40.34
2023-02-11T12:58:25.402Z,40.21
2023-02-11T13:01:11.151Z,39.49
2023-02-11T13:03:24.678Z,39.13
2023-02-11T13:05:32.108Z,39.20
2023-02-11T13:07:45.587Z,39.58
2023-02-11T13:10:22.680Z,39.22
2023-02-11T13:12:43.749Z,39.02
2023-02-11T13:14:46.112Z,39.09
2023-02-11T13:16:50.259Z,39.08
2023-02-11T13:19:10.537Z,38.16
2023-02-11T13:21:14.967Z,38.74
2023-02-11T13:23:43.367Z,39.09
2023-02-11T13:25:53.495Z,39.14
2023-02-11T13:28:00.446Z,39.16
2023-02-11T13:30:22.041Z,39.19
2023-02-11T13:32:23.752Z,38.63
2023-02-11T13:34:43.256Z,38.11
2023-02-11T13:36:54.565Z,38.48
2023-02-11T13:38:59.889Z,38.42
2023-02-11T13:41:11.231Z,37.75
2023-02-11T13:43:22.755Z,37.92
2023-02-11T13:45:27.000Z,36.75
2023-02-11T13:47:33.028Z,36.81
2023-02-11T13:49:42.702Z,37.37
2023-02-11T13:51:44.446Z,37.43
2023-02-11T13:53:54.569Z,37.64
2023-02-11T13:56:10.178Z,37.04
2023-02-11T13:58:12.099Z,36.95
2023-02-11T14:00:33.955Z,36.94
2023-02-11T14:02:55.298Z,36.93
2023-02-11T14:05:24.575Z,37.38
2023-02-11T14:07:50.642Z,38.15
2023-02-11T14:09:57.065Z,38.02
2023-02-11T14:12:30.774Z,37.61
2023-02-11T14:14:33.969Z,38.48
2023-02-11T14:16:38.339Z,38.63
2023-02-11T14:18:48.984Z,38.55
2023-02-11T14:20:51.348Z,38.77
2023-02-11T14:22:53.564Z,39.01
2023-02-11T14:24:55.176Z,39.48
2023-02-11T14:27:00.462Z,39.70
2023-02-11T14:29:17.178Z,39.86
2023-02-11T14:31:22.980Z,39.08
2023-02-11T14:33:42.912Z,39.17
2023-02-11T14:36:00.919Z,40.21
2023-02-11T14:38:41.378Z,40.29
2023-02-11T14:41:20.861Z,39.57
2023-02-11T14:43:29.695Z,39.75
2023-02-11T14:45:31.520Z,39.13
2023-02-11T14:47:54.296Z,38.64
2023-02-11T14:49:56.278Z,39.36
2023-02-11T14:52:07.712Z,38.85
2023-02-11T14:54:15.368Z,38.63
2023-02-11T14:56:34.612Z,38.46
2023-02-11T14:58:36.215Z,38.82
2023-02-11T15:01:08.902Z,38.35
2023-02-11T15:03:44.744Z,38.72
2023-02-11T15:05:46.403Z,38.88
2023-02-11T15:07:50.797Z,39.15
2023-02-11T15:09:53.876Z,39.14
2023-02-11T15:11:56.017Z,38.98
2023-02-11T15:14:01.604Z,39.62
2023-02-11T15:16:08.549Z,39.01
2023-02-11T15:18:21.344Z,39.66
2023-02-11T15:20:27.054Z,39.29
2023-02-11T15:22:33.053Z,39.65
2023-02-11T15:24:35.746Z,39.65
2023-02-11T15:26:37.400Z,39.65
2023-02-11T15:28:39.068Z,39.24
2023-02-11T15:30:40.678Z,39.20
2023-02-11T15:32:45.002Z,40.16
2023-02-11T15:34:47.979Z,40.67
2023-02-11T15:36:49.599Z,40.95
2023-02-11T15:39:27.783Z,41.60
2023-02-11T15:41:37.559Z,42.73
2023-02-11T15:43:47.151Z,43.19
2023-02-11T15:45:51.429Z,43.55
2023-02-11T15:47:56.407Z,43.97
2023-02-11T15:49:58.044Z,44.41
2023-02-11T15:51:59.722Z,44.43
2023-02-11T15:54:17.085Z,44.31
2023-02-11T15:56:43.332Z,44.84
2023-02-11T15:58:47.573Z,44.82
2023-02-11T16:00:51.735Z,44.97
2023-02-11T16:02:53.930Z,45.15
2023-02-11T16:04:58.429Z,45.43
2023-02-11T16:07:00.148Z,45.40
2023-02-11T16:09:03.737Z,45.54
2023-02-11T16:11:09.113Z,45.22
2023-02-11T16:13:10.716Z,45.37
2023-02-11T16:15:42.049Z,45.49
2023-02-11T16:17:44.234Z,45.21
2023-02-11T16:19:48.106Z,44.96
2023-02-11T16:21:49.574Z,44.57
2023-02-11T16:23:54.012Z,44.38
2023-02-11T16:26:08.997Z,43.80
2023-02-11T16:28:15.392Z,43.70
2023-02-11T16:30:39.074Z,43.51
2023-02-11T16:32:40.684Z,43.48
2023-02-11T16:34:42.462Z,43.23
2023-02-11T16:36:44.561Z,43.02
2023-02-11T16:38:46.145Z,43.49
2023-02-11T16:40:50.045Z,43.84
2023-02-11T16:42:53.536Z,43.89
2023-02-11T16:44:55.170Z,44.55
2023-02-11T16:46:59.582Z,44.17
2023-02-11T16:49:11.258Z,43.64
2023-02-11T16:51:13.219Z,43.88
2023-02-11T16:53:19.156Z,43.86
2023-02-11T16:55:22.061Z,43.54
2023-02-11T16:57:28.072Z,44.33
2023-02-11T16:59:31.211Z,44.20
2023-02-11T17:01:33.254Z,44.47
2023-02-11T17:03:40.413Z,44.13
2023-02-11T17:05:54.677Z,43.96
2023-02-11T17:07:57.087Z,44.11
2023-02-11T17:09:59.008Z,44.32
2023-02-11T17:12:00.819Z,43.93
2023-02-11T17:14:02.415Z,44.16
2023-02-11T17:16:04.155Z,43.99
2023-02-11T17:18:05.823Z,43.90
2023-02-11T17:20:08.657Z,44.17
2023-02-11T17:22:11.205Z,44.01
2023-02-11T17:24:14.308Z,43.87
2023-02-11T17:26:15.959Z,43.85
2023-02-11T17:28:17.699Z,43.74
2023-02-11T17:30:19.615Z,43.68
2023-02-11T17:32:21.355Z,43.97
2023-02-11T17:34:23.282Z,43.23
2023-02-11T17:36:24.861Z,43.24
2023-02-11T17:38:26.484Z,42.70
2023-02-11T17:40:28.149Z,42.60
2023-02-11T17:42:31.299Z,41.98
2023-02-11T17:44:33.653Z,41.63
2023-02-11T17:46:35.583Z,41.70
2023-02-11T17:48:40.892Z,41.28
2023-02-11T17:50:42.485Z,41.74
2023-02-11T17:52:44.137Z,41.39
2023-02-11T17:54:45.988Z,41.67
2023-02-11T17:56:50.516Z,42.07
2023-02-11T17:58:53.302Z,42.05
2023-02-11T18:00:58.701Z,42.40
2023-02-11T18:03:03.782Z,42.58
2023-02-11T18:05:06.026Z,43.00
2023-02-11T18:07:07.689Z,43.50
2023-02-11T18:09:09.439Z,43.76
2023-02-11T18:11:12.393Z,43.94
2023-02-11T18:13:13.990Z,43.92
2023-02-11T18:15:15.921Z,44.35
2023-02-11T18:17:17.513Z,44.01
2023-02-11T18:19:19.556Z,44.27
2023-02-11T18:21:22.853Z,44.22
2023-02-11T18:23:24.790Z,44.05
2023-02-11T18:25:26.392Z,44.25
2023-02-11T18:27:28.208Z,44.27
2023-02-11T18:29:29.847Z,44.95
2023-02-11T18:31:31.920Z,44.92
2023-02-11T18:33:33.863Z,45.03
2023-02-11T18:35:39.143Z,45.13
2023-02-11T18:37:41.938Z,45.33
2023-02-11T18:39:43.592Z,45.18
2023-02-11T18:41:45.745Z,45.03
2023-02-11T18:43:47.381Z,45.03
2023-02-11T18:45:50.181Z,44.54
2023-02-11T18:47:51.996Z,44.54
2023-02-11T18:49:53.671Z,44.74
2023-02-11T18:51:55.405Z,44.76
2023-02-11T18:53:57.002Z,45.50
2023-02-11T18:55:58.605Z,45.55
2023-02-11T18:58:00.182Z,44.00
2023-02-11T19:00:01.830Z,42.64
2023-02-11T19:02:03.437Z,41.94
2023-02-11T19:04:05.828Z,41.08
2023-02-11T19:06:08.350Z,41.24
2023-02-11T19:08:10.803Z,40.81
2023-02-11T19:10:13.733Z,40.74
2023-02-11T19:12:15.411Z,40.20
2023-02-11T19:14:22.822Z,39.75
2023-02-11T19:16:24.814Z,39.47
2023-02-11T19:18:26.433Z,39.23
2023-02-11T19:20:28.023Z,38.68
2023-02-11T19:22:29.613Z,38.75
2023-02-11T19:24:31.326Z,38.72
2023-02-11T19:26:33.142Z,38.31
2023-02-11T19:28:37.114Z,38.45
2023-02-11T19:30:38.968Z,38.38
2023-02-11T19:32:40.582Z,37.82
2023-02-11T19:34:42.529Z,38.27
2023-02-11T19:36:44.257Z,37.63
2023-02-11T19:38:45.950Z,38.14
2023-02-11T19:40:55.773Z,38.46
2023-02-11T19:42:57.382Z,38.29
2023-02-11T19:44:59.014Z,37.94
2023-02-11T19:47:01.266Z,38.18
2023-02-11T19:49:03.870Z,37.93
2023-02-11T19:51:12.064Z,38.30
2023-02-11T19:53:14.684Z,37.99
2023-02-11T19:55:16.418Z,38.06
2023-02-11T19:57:18.142Z,38.06
2023-02-11T19:59:20.233Z,37.89
2023-02-11T20:01:23.774Z,38.13
2023-02-11T20:03:25.391Z,38.24
2023-02-11T20:05:27.126Z,38.32
2023-02-11T20:07:29.695Z,38.29
2023-02-11T20:09:31.831Z,38.39
2023-02-11T20:11:34.622Z,38.53
2023-02-11T20:13:37.817Z,38.44
2023-02-11T20:15:39.506Z,38.06
2023-02-11T20:17:41.150Z,38.24
2023-02-11T20:19:42.762Z,38.59
2023-02-11T20:21:47.066Z,38.84
2023-02-11T20:23:50.162Z,39.51
2023-02-11T20:25:51.916Z,39.83
2023-02-11T20:27:53.892Z,39.86
2023-02-11T20:29:55.809Z,39.87
2023-02-11T20:31:57.646Z,39.84
2023-02-11T20:34:00.353Z,38.80
2023-02-11T20:36:06.445Z,38.61
2023-02-11T20:38:08.118Z,38.95
2023-02-11T20:40:10.102Z,38.94
2023-02-11T20:42:12.195Z,38.78
2023-02-11T20:44:14.501Z,39.09
2023-02-11T20:46:17.587Z,39.03
2023-02-11T20:48:19.275Z,38.98
2023-02-11T20:50:20.948Z,38.95
2023-02-11T20:52:22.515Z,39.47
2023-02-11T20:54:25.691Z,40.01
2023-02-11T20:56:32.971Z,40.47
2023-02-11T20:58:35.983Z,40.66
2023-02-11T21:00:37.814Z,41.11
2023-02-11T21:02:39.421Z,41.33
2023-02-11T21:04:41.034Z,41.94
2023-02-11T21:06:45.713Z,42.09
2023-02-11T21:08:47.628Z,41.86
2023-02-11T21:10:49.297Z,42.14
2023-02-11T21:12:50.881Z,41.79
2023-02-11T21:14:54.894Z,40.75
2023-02-11T21:16:56.677Z,40.52
2023-02-11T21:18:58.656Z,39.83
2023-02-11T21:21:00.965Z,41.90
2023-02-11T21:23:02.519Z,41.36
2023-02-11T21:25:06.146Z,41.73
2023-02-11T21:27:07.772Z,41.50
2023-02-11T21:29:09.953Z,41.69
2023-02-11T21:31:21.840Z,42.31
2023-02-11T21:33:24.325Z,42.19
2023-02-11T21:35:26.105Z,42.39
2023-02-11T21:37:27.719Z,42.01
2023-02-11T21:39:29.360Z,41.53
2023-02-11T21:41:31.455Z,41.60
2023-02-11T21:43:33.162Z,41.79
2023-02-11T21:45:34.760Z,40.81
2023-02-11T21:47:36.362Z,38.57
2023-02-11T21:49:38.078Z,37.96
2023-02-11T21:51:39.720Z,36.74
2023-02-11T21:53:41.363Z,35.42
2023-02-11T21:55:43.447Z,34.20
2023-02-11T21:57:44.995Z,33.84
2023-02-11T21:59:46.640Z,33.37
2023-02-11T22:01:48.303Z,33.31
2023-02-11T22:03:49.995Z,32.81
2023-02-11T22:05:51.717Z,32.98
2023-02-11T22:07:53.304Z,32.83
2023-02-11T22:09:55.751Z,33.09
2023-02-11T22:11:57.450Z,33.44
2023-02-11T22:13:59.353Z,33.13
2023-02-11T22:16:03.433Z,32.99
2023-02-11T22:18:05.102Z,33.36
2023-02-11T22:20:08.320Z,33.46
2023-02-11T22:22:09.923Z,33.36
2023-02-11T22:24:11.545Z,33.84
2023-02-11T22:26:16.958Z,34.29
2023-02-11T22:28:18.690Z,34.59
2023-02-11T22:30:20.540Z,35.00
2023-02-11T22:32:22.170Z,36.16
2023-02-11T22:34:23.795Z,38.23
2023-02-11T22:36:27.640Z,39.62
2023-02-11T22:38:31.121Z,40.44
2023-02-11T22:40:32.753Z,41.00
2023-02-11T22:42:34.408Z,41.49
2023-02-11T22:44:37.532Z,41.02
2023-02-11T22:46:40.014Z,40.24
2023-02-11T22:48:41.788Z,40.25
2023-02-11T22:50:43.424Z,41.68
2023-02-11T22:52:45.028Z,41.94
2023-02-11T22:54:46.699Z,41.52
2023-02-11T22:56:50.768Z,41.21
2023-02-11T22:58:53.784Z,39.93
2023-02-11T23:00:55.372Z,39.79
2023-02-11T23:02:57.074Z,39.38
2023-02-11T23:04:59.489Z,40.18
2023-02-11T23:07:01.040Z,40.67
2023-02-11T23:09:07.813Z,40.37
2023-02-11T23:11:15.549Z,40.46
2023-02-11T23:13:17.146Z,41.16
2023-02-11T23:15:18.739Z,42.67
2023-02-11T23:17:20.392Z,41.70
2023-02-11T23:19:22.042Z,40.39
2023-02-11T23:21:27.256Z,39.66
2023-02-11T23:23:28.880Z,39.52
2023-02-11T23:25:30.923Z,39.22
2023-02-11T23:27:32.607Z,39.19
2023-02-11T23:29:34.324Z,39.19
2023-02-11T23:31:39.795Z,39.18
2023-02-11T23:33:41.875Z,39.04
2023-02-11T23:35:43.463Z,39.47
2023-02-11T23:37:45.038Z,39.58
2023-02-11T23:39:46.599Z,39.67
2023-02-11T23:41:48.192Z,40.10
2023-02-11T23:43:55.018Z,40.01
2023-02-11T23:45:57.157Z,39.87
2023-02-11T23:47:59.035Z,40.32
2023-02-11T23:50:00.800Z,40.98
2023-02-11T23:52:02.473Z,40.48
2023-02-11T23:54:04.287Z,40.96
2023-02-11T23:56:11.459Z,40.81
2023-02-11T23:58:14.824Z,40.84
